createdAt,value
2022-09-16T00:00:02.878Z,12.7
2022-09-16T00:20:02.979Z,12.6
2022-09-16T00:40:02.869Z,12.6
2022-09-16T01:00:02.633Z,12.4
2022-09-16T01:20:02.580Z,12.3
2022-09-16T01:40:03.129Z,12.1
2022-09-16T02:00:02.869Z,11.9
2022-09-16T02:20:02.725Z,11.7
2022-09-16T02:40:03.257Z,11.7
2022-09-16T03:00:02.745Z,11.7
2022-09-16T03:20:03.135Z,11.6
2022-09-16T03:40:02.929Z,11.7
2022-09-16T04:00:02.715Z,11.6
2022-09-16T04:20:02.689Z,11.6
2022-09-16T04:40:04.874Z,11.4
2022-09-16T05:00:03.036Z,11.4
2022-09-16T05:20:02.386Z,11.5
2022-09-16T05:40:03.050Z,11.7
2022-09-16T06:00:02.725Z,11.7
2022-09-16T06:20:02.849Z,11.9
2022-09-16T06:40:02.601Z,12.1
2022-09-16T07:00:02.472Z,12.3
2022-09-16T07:20:03.200Z,12.6
2022-09-16T07:40:03.176Z,13.1
2022-09-16T08:00:02.897Z,13.6
2022-09-16T08:20:02.944Z,14.2
2022-09-16T08:40:02.987Z,14.3
2022-09-16T09:00:03.085Z,14.8
2022-09-16T09:20:03.027Z,14.8
2022-09-16T09:40:02.997Z,14.5
2022-09-16T10:00:03.229Z,16.4
2022-09-16T10:20:03.152Z,17.3
2022-09-16T10:40:03.012Z,16.8
2022-09-16T11:00:02.841Z,17.4
2022-09-16T11:20:03.008Z,16.6
2022-09-16T11:40:03.012Z,17.1
2022-09-16T12:00:02.779Z,16.9
2022-09-16T12:20:02.704Z,17
2022-09-16T12:40:02.642Z,17.2
2022-09-16T13:00:02.632Z,17.2
2022-09-16T13:20:02.807Z,17
2022-09-16T13:40:02.706Z,16.8
2022-09-16T14:00:02.613Z,17.1
2022-09-16T14:20:02.580Z,17.3
2022-09-16T14:40:03.349Z,17.4
2022-09-16T15:00:03.232Z,17.3
2022-09-16T15:20:02.764Z,17.2
2022-09-16T15:40:02.622Z,17.3
2022-09-16T16:00:02.688Z,16.9
2022-09-16T16:20:02.601Z,16.8
2022-09-16T16:40:03.248Z,16.5
2022-09-16T17:00:03.608Z,16.2
2022-09-16T17:20:03.110Z,16
2022-09-16T17:40:02.758Z,15.7
2022-09-16T18:00:02.545Z,15.2
2022-09-16T18:20:06.904Z,14.9
2022-09-16T18:40:03.123Z,14.6
2022-09-16T19:00:03.104Z,14.3
2022-09-16T19:20:03.171Z,14
2022-09-16T19:40:02.939Z,13.9
2022-09-16T20:00:03.201Z,13.8
2022-09-16T20:20:03.277Z,13.5
2022-09-16T20:40:03.266Z,13
2022-09-16T21:00:02.944Z,12.7
2022-09-16T21:20:03.321Z,12.3
2022-09-16T21:40:03.198Z,12
2022-09-16T22:00:03.124Z,11.7
2022-09-16T22:20:03.224Z,11.5
2022-09-16T22:40:03.147Z,11.5
2022-09-16T23:00:02.834Z,11.5
2022-09-16T23:20:02.991Z,11.4
2022-09-16T23:40:02.473Z,11.6
